Terminal Aerodrome Forecast
Issued by NWS

Current Version | Previous Version | Graphics & Text | Print | Product List | Glossary On
Versions: 1 2 3 4 5 6 7 8 9 10 11 12 13 14 15 16 17 18 19 20 21 22 23 24 25 26 27 28 29 30 31 32 33 34 35 36 37 38 39 40 41 42 43 44 45
000
FTUS41 KRNK 081123
TAFLWB
TAF
KLWB 081123Z 0812/0912 20004KT P6SM SCT040 BKN080
     FM081400 22008G16KT P6SM VCSH BKN045 BKN080
     FM082000 24010G20KT P6SM VCTS BKN045CB
     FM090000 24006KT 5SM -TSRA BR SCT025 OVC040CB
     FM090400 00000KT 2SM BR SCT001 BKN100=

USA.gov is the U.S. government's official web portal to all federal, state and local government web resources and services.